Time;durP1;ratioP1;P1;durP2;ratioP2;P2;SDS_P1;SDS_P2;PMS_P1;PMS_P2;Temp;Humidity;BMP_temperature;BMP_pressure;BME280_temperature;BME280_humidity;BME280_pressure;Samples;Min_cycle;Max_cycle;Signal;HPM_P1;HPM_P2
2022/01/03 00:00:07;;;;;;;5.15;1.23;;;;;;;10.64;67.88;96683.66;4936831;29;20055;-77
2022/01/03 00:02:34;;;;;;;3.60;1.20;;;;;;;10.65;68.83;96690.53;4937000;29;20494;-77
2022/01/03 00:05:02;;;;;;;4.90;1.92;;;;;;;10.68;69.20;96703.19;4936543;29;20533;-77
2022/01/03 00:07:33;;;;;;;3.67;1.48;;;;;;;10.71;68.40;96691.59;4936352;29;20501;-78
2022/01/03 00:10:01;;;;;;;3.13;1.42;;;;;;;10.72;68.57;96696.63;4936759;29;20048;-78
2022/01/03 00:12:30;;;;;;;3.20;1.42;;;;;;;10.74;68.11;96703.50;4937070;29;20052;-77
2022/01/03 00:14:59;;;;;;;2.88;1.40;;;;;;;10.77;67.81;96710.94;4936965;29;20051;-78
2022/01/03 00:17:27;;;;;;;1.55;1.05;;;;;;;10.79;68.18;96722.00;4936662;29;20494;-78
2022/01/03 00:19:54;;;;;;;1.90;1.25;;;;;;;10.81;68.07;96707.78;4936479;29;20047;-78
2022/01/03 00:22:23;;;;;;;2.33;1.10;;;;;;;10.81;68.33;96714.81;4937031;29;20051;-77
2022/01/03 00:24:59;;;;;;;1.92;1.00;;;;;;;10.83;67.76;96724.06;4936849;29;20062;-77
2022/01/03 00:27:34;;;;;;;5.53;1.50;;;;;;;10.85;67.34;96713.47;4945303;29;20052;-77
2022/01/03 00:30:04;;;;;;;3.38;1.25;;;;;;;10.86;67.82;96702.81;4956844;29;20032;-76
2022/01/03 00:32:33;;;;;;;6.80;1.52;;;;;;;10.87;68.22;96686.19;4957318;29;20055;-76
2022/01/03 00:35:02;;;;;;;1.80;1.00;;;;;;;10.88;69.04;96689.59;4957068;29;20051;-77
2022/01/03 00:37:31;;;;;;;2.90;1.42;;;;;;;10.87;68.43;96688.00;4940401;29;20531;-78
2022/01/03 00:40:01;;;;;;;3.20;1.30;;;;;;;10.87;68.54;96688.81;4937148;29;20050;-78
2022/01/03 00:42:31;;;;;;;3.05;1.20;;;;;;;10.85;67.23;96671.72;4937027;29;20087;-77
2022/01/03 00:45:00;;;;;;;3.60;2.03;;;;;;;10.86;67.26;96687.16;4936156;29;20055;-77
2022/01/03 00:47:31;;;;;;;2.08;1.27;;;;;;;10.87;68.11;96678.38;4936592;29;20502;-77
2022/01/03 00:49:59;;;;;;;3.60;1.60;;;;;;;10.87;66.80;96672.34;4936258;29;20051;-77
2022/01/03 00:52:27;;;;;;;2.10;1.23;;;;;;;10.87;67.01;96674.97;4936244;29;20059;-77
2022/01/03 00:54:54;;;;;;;3.45;1.17;;;;;;;10.87;67.12;96657.50;4935921;29;20056;-78
2022/01/03 00:57:31;;;;;;;1.40;1.13;;;;;;;10.88;67.84;96666.13;4935685;29;20059;-78
2022/01/03 01:00:05;;;;;;;4.20;1.63;;;;;;;10.92;67.44;96675.22;4935918;29;20533;-77
2022/01/03 01:02:36;;;;;;;11.00;1.25;;;;;;;10.90;65.83;96664.94;4936269;29;20063;-77
2022/01/03 01:05:04;;;;;;;4.57;1.20;;;;;;;10.90;67.21;96675.38;4935828;29;20106;-78
2022/01/03 01:07:33;;;;;;;2.33;1.20;;;;;;;10.92;66.73;96670.00;4935633;29;20051;-78
2022/01/03 01:10:03;;;;;;;5.28;1.40;;;;;;;10.93;67.75;96667.22;4935583;29;20051;-77
2022/01/03 01:12:33;;;;;;;2.20;1.00;;;;;;;10.95;67.27;96687.88;4936196;29;20056;-78
2022/01/03 01:15:00;;;;;;;5.75;1.80;;;;;;;10.96;66.14;96697.34;4935882;29;20063;-78
2022/01/03 01:17:28;;;;;;;2.15;1.02;;;;;;;10.97;67.04;96690.31;4935544;29;20056;-78
2022/01/03 01:19:59;;;;;;;2.65;1.20;;;;;;;10.97;65.41;96685.91;4935932;29;20056;-77
2022/01/03 01:22:27;;;;;;;2.88;1.15;;;;;;;10.99;66.48;96701.38;4935194;29;20062;-77
2022/01/03 01:25:22;;;;;;;3.53;1.20;;;;;;;10.98;67.20;96695.38;4935576;29;20059;-78
2022/01/03 01:27:49;;;;;;;3.92;1.40;;;;;;;10.99;67.74;96691.75;4935049;29;20063;-77
2022/01/03 01:30:17;;;;;;;3.20;1.15;;;;;;;10.98;65.83;96695.38;4935403;29;20048;-77
2022/01/03 01:32:49;;;;;;;1.75;1.00;;;;;;;11.00;65.86;96703.84;4935774;29;20059;-77
2022/01/03 01:35:20;;;;;;;4.18;1.20;;;;;;;11.02;66.62;96714.06;4935305;29;20189;-78
2022/01/03 01:37:53;;;;;;;5.15;1.70;;;;;;;11.02;65.35;96708.84;4935094;29;20051;-77
2022/01/03 01:40:22;;;;;;;2.33;1.05;;;;;;;11.02;65.80;96707.06;4935329;29;20059;-77
2022/01/03 01:42:55;;;;;;;4.32;1.55;;;;;;;11.02;67.43;96701.84;4935393;29;20056;-78
2022/01/03 01:45:27;;;;;;;2.80;1.27;;;;;;;11.02;65.75;96701.00;4935159;29;20052;-78
2022/01/03 01:47:59;;;;;;;3.60;1.30;;;;;;;11.01;65.33;96705.44;4935230;29;20063;-78
2022/01/03 01:50:29;;;;;;;6.18;1.30;;;;;;;11.01;66.72;96710.66;4935462;29;20063;-78
2022/01/03 01:52:57;;;;;;;7.47;1.83;;;;;;;11.01;65.84;96720.28;4938633;29;20067;-78
2022/01/03 01:55:25;;;;;;;3.42;1.25;;;;;;;11.03;67.06;96731.38;4938722;29;20070;-78
2022/01/03 01:58:03;;;;;;;5.10;1.52;;;;;;;11.03;65.16;96711.28;4938458;29;20419;-77
2022/01/03 02:00:32;;;;;;;3.00;1.30;;;;;;;11.00;66.74;96703.84;4938960;29;20058;-78
2022/01/03 02:03:14;;;;;;;2.13;1.15;;;;;;;11.01;67.70;96715.88;4938887;29;20056;-78
2022/01/03 02:05:44;;;;;;;3.93;1.53;;;;;;;11.01;67.73;96720.28;4938773;29;20059;-77
2022/01/03 02:08:15;;;;;;;2.40;1.10;;;;;;;11.00;67.46;96727.31;4938683;29;20059;-78
2022/01/03 02:10:44;;;;;;;4.72;1.33;;;;;;;10.98;65.59;96726.69;4938449;29;20055;-77
2022/01/03 02:13:20;;;;;;;3.00;1.25;;;;;;;10.97;65.23;96712.00;4938625;29;20082;-77
2022/01/03 02:15:56;;;;;;;2.42;0.82;;;;;;;10.96;66.15;96726.06;4938275;29;20052;-77
2022/01/03 02:18:24;;;;;;;3.60;1.08;;;;;;;10.98;67.05;96737.13;4938329;29;20134;-77
2022/01/03 02:20:54;;;;;;;3.03;0.90;;;;;;;10.98;66.70;96731.91;4938281;29;20044;-78
2022/01/03 02:23:22;;;;;;;3.20;1.33;;;;;;;10.99;67.64;96733.50;4938428;29;20502;-78
2022/01/03 02:25:51;;;;;;;4.38;1.05;;;;;;;10.99;66.92;96728.28;4938142;29;20051;-77
2022/01/03 02:28:22;;;;;;;3.50;1.40;;;;;;;10.97;65.58;96712.00;4938210;29;20059;-77
2022/01/03 02:30:51;;;;;;;2.60;1.23;;;;;;;10.98;66.74;96716.25;4937966;29;20048;-78
2022/01/03 02:33:19;;;;;;;4.07;1.20;;;;;;;10.98;67.00;96726.69;4938001;29;20060;-77
2022/01/03 02:35:47;;;;;;;2.17;1.05;;;;;;;11.00;67.54;96729.09;4937911;29;20048;-77
2022/01/03 02:38:16;;;;;;;2.47;1.17;;;;;;;10.98;67.77;96726.69;4938008;29;20051;-77
2022/01/03 02:40:44;;;;;;;2.83;1.00;;;;;;;10.97;68.21;96730.28;4938986;29;20048;-77
2022/01/03 02:43:12;;;;;;;4.07;1.25;;;;;;;10.94;67.32;96730.66;4937780;29;20056;-77
2022/01/03 02:45:39;;;;;;;4.53;2.15;;;;;;;10.92;67.79;96725.59;4937716;29;20060;-77
2022/01/03 02:48:08;;;;;;;4.00;1.25;;;;;;;10.90;66.64;96730.19;4937781;29;20067;-77
2022/01/03 02:50:37;;;;;;;5.03;1.27;;;;;;;10.90;67.73;96726.78;4937841;29;20055;-78
2022/01/03 02:53:04;;;;;;;5.35;1.20;;;;;;;10.90;68.02;96732.00;4937725;29;20414;-78
2022/01/03 02:55:33;;;;;;;2.83;1.50;;;;;;;10.89;67.59;96739.03;4937564;29;20064;-77
2022/01/03 02:58:07;;;;;;;2.33;1.10;;;;;;;10.89;66.20;96746.06;4937234;29;20056;-77
2022/01/03 03:00:38;;;;;;;3.47;1.30;;;;;;;10.87;65.50;96751.44;4937360;29;20064;-78
2022/01/03 03:03:05;;;;;;;5.50;1.30;;;;;;;10.88;65.15;96747.03;4937552;29;20056;-77
2022/01/03 03:05:33;;;;;;;2.30;1.00;;;;;;;10.87;65.48;96755.84;4937626;29;20099;-77
2022/01/03 03:08:01;;;;;;;3.42;1.00;;;;;;;10.85;65.49;96750.00;4937158;29;20059;-78
2022/01/03 03:10:28;;;;;;;3.63;1.10;;;;;;;10.86;64.84;96752.41;4937264;29;20048;-78
2022/01/03 03:12:57;;;;;;;4.30;1.30;;;;;;;10.86;67.02;96747.19;4937307;29;20055;-77
2022/01/03 03:15:24;;;;;;;3.83;1.10;;;;;;;10.86;67.16;96749.00;4937635;29;20063;-78
2022/01/03 03:17:53;;;;;;;3.45;1.55;;;;;;;10.85;68.54;96742.19;4937192;29;20134;-77
2022/01/03 03:20:22;;;;;;;2.80;0.80;;;;;;;10.85;67.99;96750.00;4937566;29;20051;-78
2022/01/03 03:22:51;;;;;;;4.38;1.80;;;;;;;10.84;66.92;96756.19;4937487;29;20052;-78
2022/01/03 03:25:21;;;;;;;4.20;1.60;;;;;;;10.85;66.50;96755.22;4936736;29;20058;-77
2022/01/03 03:27:51;;;;;;;7.10;1.30;;;;;;;10.85;67.83;96761.25;4936737;29;20059;-77
2022/01/03 03:30:23;;;;;;;1.95;0.90;;;;;;;10.85;66.05;96760.44;4937056;29;20422;-78
2022/01/03 03:32:52;;;;;;;4.77;1.37;;;;;;;10.83;67.37;96758.00;4937298;29;20051;-77
2022/01/03 03:35:21;;;;;;;5.70;1.40;;;;;;;10.83;66.75;96752.78;4937335;29;20056;-77
2022/01/03 03:37:48;;;;;;;5.68;1.00;;;;;;;10.83;67.12;96755.38;4937195;29;20051;-78
2022/01/03 03:40:17;;;;;;;5.15;1.50;;;;;;;10.83;67.98;96763.22;4936675;29;20495;-76
2022/01/03 03:42:44;;;;;;;4.85;1.70;;;;;;;10.82;68.31;96756.41;4936779;29;20051;-77
2022/01/03 03:45:13;;;;;;;4.82;0.88;;;;;;;10.80;67.63;96757.53;4936559;29;20533;-78
2022/01/03 03:47:42;;;;;;;4.93;1.55;;;;;;;10.79;66.91;96764.56;4936498;29;20526;-77
2022/01/03 03:50:10;;;;;;;3.85;1.15;;;;;;;10.78;66.14;96767.34;4936599;29;20047;-77
2022/01/03 03:52:39;;;;;;;5.40;1.02;;;;;;;10.77;67.69;96761.31;4936527;29;20056;-77
2022/01/03 03:55:08;;;;;;;4.35;0.90;;;;;;;10.78;67.65;96759.50;4936859;29;20051;-77
2022/01/03 03:57:35;;;;;;;3.38;1.20;;;;;;;10.78;67.34;96756.91;4936336;29;20066;-78
2022/01/03 04:00:05;;;;;;;3.92;0.98;;;;;;;10.80;68.54;96757.53;4936440;29;20522;-77
2022/01/03 04:02:32;;;;;;;2.33;1.30;;;;;;;10.79;68.36;96763.75;4936268;29;20047;-78
2022/01/03 04:05:02;;;;;;;3.08;1.00;;;;;;;10.77;69.24;96758.72;4936762;29;20055;-78
2022/01/03 04:07:29;;;;;;;2.67;1.25;;;;;;;10.76;67.42;96757.09;4935781;29;20494;-77
2022/01/03 04:09:57;;;;;;;5.03;2.15;;;;;;;10.77;68.03;96744.88;4935944;29;20506;-76
2022/01/03 04:12:24;;;;;;;2.45;1.15;;;;;;;10.78;68.81;96752.53;4936425;29;20052;-77
2022/01/03 04:14:52;;;;;;;3.47;1.20;;;;;;;10.78;68.68;96759.50;4935756;29;20063;-77
2022/01/03 04:17:19;;;;;;;2.33;0.85;;;;;;;10.77;67.47;96755.31;4935877;29;20055;-78
2022/01/03 04:19:47;;;;;;;4.15;1.10;;;;;;;10.76;67.82;96749.28;4936242;29;20063;-77
2022/01/03 04:22:18;;;;;;;12.00;2.08;;;;;;;10.77;67.25;96755.31;4936590;29;20048;-78
2022/01/03 04:24:46;;;;;;;1.77;0.98;;;;;;;10.76;66.43;96749.28;4936132;29;20074;-78
2022/01/03 04:27:13;;;;;;;2.45;0.90;;;;;;;10.78;67.56;96751.69;4935805;29;20521;-77
2022/01/03 04:29:41;;;;;;;4.75;1.15;;;;;;;10.77;66.84;96748.28;4936470;29;20051;-77
2022/01/03 04:32:08;;;;;;;4.22;1.17;;;;;;;10.79;66.63;96748.09;4935956;29;20067;-77
2022/01/03 04:34:36;;;;;;;3.50;1.00;;;;;;;10.80;67.41;96753.16;4936150;29;20058;-77
2022/01/03 04:37:08;;;;;;;1.73;0.80;;;;;;;10.79;68.48;96753.31;4935671;29;20111;-77
2022/01/03 04:39:38;;;;;;;2.05;1.38;;;;;;;10.78;68.91;96749.06;4935848;29;20048;-77
2022/01/03 04:42:06;;;;;;;2.95;1.10;;;;;;;10.79;68.42;96753.31;4936231;29;20055;-78
2022/01/03 04:44:33;;;;;;;5.72;1.33;;;;;;;10.78;67.60;96747.31;4935770;29;20059;-78
2022/01/03 04:47:01;;;;;;;7.22;1.45;;;;;;;10.78;67.82;96741.25;4935690;29;20480;-78
2022/01/03 04:49:29;;;;;;;2.78;1.23;;;;;;;10.77;67.86;96740.44;4935704;29;20051;-77
2022/01/03 04:51:56;;;;;;;1.63;0.70;;;;;;;10.78;68.32;96730.81;4935533;29;20055;-77
2022/01/03 04:54:24;;;;;;;4.95;1.40;;;;;;;10.75;67.37;96734.59;4935664;29;20051;-78
2022/01/03 04:56:57;;;;;;;4.72;1.17;;;;;;;10.74;66.77;96745.22;4935279;29;20055;-78
2022/01/03 04:59:24;;;;;;;2.92;1.23;;;;;;;10.74;68.51;96745.22;4935281;29;20080;-78
2022/01/03 05:01:52;;;;;;;3.17;1.20;;;;;;;10.71;66.97;96733.34;4935650;29;20048;-77
2022/01/03 05:04:20;;;;;;;2.50;1.30;;;;;;;10.70;68.23;96729.91;4935600;29;20131;-78
2022/01/03 05:06:48;;;;;;;4.03;1.63;;;;;;;10.69;67.72;96737.91;4935013;29;20056;-77
2022/01/03 05:09:15;;;;;;;4.28;1.13;;;;;;;10.67;68.00;96745.94;4935521;29;20067;-77
2022/01/03 05:11:43;;;;;;;5.45;0.90;;;;;;;10.68;67.63;96746.75;4935444;29;20498;-77
2022/01/03 05:14:12;;;;;;;6.20;1.00;;;;;;;10.69;66.95;96756.19;4935419;29;20506;-78
2022/01/03 05:16:39;;;;;;;3.33;1.40;;;;;;;10.68;67.48;96741.53;4935203;29;20411;-78
2022/01/03 05:19:07;;;;;;;4.22;1.08;;;;;;;10.66;67.30;96752.13;4935437;29;20052;-77
2022/01/03 05:21:34;;;;;;;4.72;1.15;;;;;;;10.66;67.85;96744.31;4935434;29;20571;-77
2022/01/03 05:24:02;;;;;;;4.88;1.52;;;;;;;10.65;66.39;96742.69;4935260;29;20063;-77
2022/01/03 05:26:29;;;;;;;2.90;0.90;;;;;;;10.66;67.04;96753.94;4934078;29;20110;-77
2022/01/03 05:28:57;;;;;;;6.35;1.40;;;;;;;10.65;66.81;96753.13;4935375;29;20107;-77
2022/01/03 05:31:25;;;;;;;5.85;1.27;;;;;;;10.65;66.91;96766.19;4935421;29;20052;-78
2022/01/03 05:33:53;;;;;;;3.10;1.08;;;;;;;10.65;66.60;96773.19;4935399;29;20143;-77
2022/01/03 05:36:21;;;;;;;3.97;1.70;;;;;;;10.66;67.88;96777.41;4935278;29;20541;-78
2022/01/03 05:38:48;;;;;;;2.33;0.95;;;;;;;10.64;67.67;96782.00;4935122;29;20052;-78
2022/01/03 05:41:16;;;;;;;2.25;1.15;;;;;;;10.62;67.59;96800.44;4935224;29;20051;-78
2022/01/03 05:43:44;;;;;;;3.10;1.00;;;;;;;10.59;67.95;96797.38;4935722;29;20062;-76
2022/01/03 05:46:12;;;;;;;4.63;0.85;;;;;;;10.54;69.43;96797.91;4935470;29;20048;-77
2022/01/03 05:48:41;;;;;;;3.47;1.27;;;;;;;10.52;70.49;96794.66;4935639;29;20051;-77
2022/01/03 05:51:12;;;;;;;5.53;1.70;;;;;;;10.49;70.96;96789.78;4941203;29;20047;-77
2022/01/03 05:53:39;;;;;;;4.50;1.02;;;;;;;10.46;70.83;96792.75;4957243;29;20040;-76
2022/01/03 05:56:07;;;;;;;6.15;1.58;;;;;;;10.44;72.29;96798.16;4957213;29;20050;-78
2022/01/03 05:58:35;;;;;;;2.13;1.02;;;;;;;10.40;71.18;96789.03;4957446;29;20035;-77
2022/01/03 06:01:02;;;;;;;46.28;26.75;;;;;;;10.38;72.74;96793.63;4943942;29;20058;-78
2022/01/03 06:03:35;;;;;;;10.88;4.45;;;;;;;10.38;72.93;96783.19;4937368;29;20054;-78
2022/01/03 06:06:20;;;;;;;5.75;1.42;;;;;;;10.36;72.17;96790.38;4935530;29;20063;-77
2022/01/03 06:08:48;;;;;;;3.05;1.20;;;;;;;10.31;71.62;96798.72;4935716;29;20059;-77
2022/01/03 06:11:15;;;;;;;4.15;0.90;;;;;;;10.27;72.36;96815.66;4935623;29;20047;-77
2022/01/03 06:13:43;;;;;;;3.70;1.10;;;;;;;10.22;71.94;96820.59;4935272;29;20525;-78
2022/01/03 06:16:10;;;;;;;4.47;0.95;;;;;;;10.19;72.48;96817.53;4934831;29;20048;-77
2022/01/03 06:18:38;;;;;;;3.38;0.85;;;;;;;10.17;73.05;96807.28;4934831;29;20059;-77
2022/01/03 06:21:07;;;;;;;5.40;1.10;;;;;;;10.14;72.12;96806.81;4935516;29;20458;-75
2022/01/03 06:23:34;;;;;;;2.88;0.82;;;;;;;10.03;71.88;96789.78;4935653;29;20059;-77
2022/01/03 06:26:02;;;;;;;3.50;0.80;;;;;;;9.95;73.07;96795.03;4934873;29;20391;-77
2022/01/03 06:28:29;;;;;;;5.95;1.02;;;;;;;9.89;72.96;96802.56;4935347;29;20082;-78
2022/01/03 06:30:57;;;;;;;2.63;1.30;;;;;;;9.88;74.01;96790.53;4936090;29;20047;-78
2022/01/03 06:33:24;;;;;;;3.67;1.10;;;;;;;9.92;74.58;96798.00;4935282;29;20048;-78
2022/01/03 06:35:52;;;;;;;4.97;1.50;;;;;;;9.94;74.80;96790.84;4935208;29;20051;-78
2022/01/03 06:38:21;;;;;;;4.28;1.17;;;;;;;9.93;75.31;96781.38;4938233;29;20056;-78
2022/01/03 06:40:48;;;;;;;3.55;1.38;;;;;;;9.93;75.74;96783.97;4938287;29;20494;-77
2022/01/03 06:43:16;;;;;;;4.13;1.20;;;;;;;9.94;76.13;96776.00;4938560;29;20063;-77
2022/01/03 06:45:43;;;;;;;4.93;1.30;;;;;;;9.95;76.23;96787.22;4938178;29;20082;-78
2022/01/03 06:48:11;;;;;;;6.32;2.10;;;;;;;9.97;76.48;96785.25;4938359;29;20059;-77
2022/01/03 06:50:38;;;;;;;6.93;2.45;;;;;;;9.95;75.79;96787.22;4938586;29;20067;-78
2022/01/03 06:53:06;;;;;;;6.68;2.33;;;;;;;9.97;76.56;96798.28;4938178;29;20044;-78
2022/01/03 06:55:35;;;;;;;5.38;1.23;;;;;;;9.98;76.54;96789.50;4938354;29;20055;-78
2022/01/03 06:58:02;;;;;;;5.03;2.10;;;;;;;9.95;76.03;96782.84;4938164;29;20052;-79
2022/01/03 07:00:30;;;;;;;5.00;0.98;;;;;;;9.96;76.50;96781.03;4938370;29;20051;-78
2022/01/03 07:02:57;;;;;;;5.53;1.42;;;;;;;9.93;76.65;96784.81;4937975;29;20056;-76
2022/01/03 07:05:25;;;;;;;4.47;1.25;;;;;;;9.94;76.68;96794.25;4937571;29;20054;-75
2022/01/03 07:07:53;;;;;;;4.30;1.20;;;;;;;9.93;76.05;96789.19;4935302;29;20054;-75
2022/01/03 07:10:20;;;;;;;4.28;1.30;;;;;;;9.88;76.61;96789.72;4927620;29;20047;-76
2022/01/03 07:12:51;;;;;;;6.63;1.95;;;;;;;9.86;77.21;96789.91;4929900;29;20051;-75
2022/01/03 07:20:52;;;;;;;6.13;1.33;;;;;;;9.84;77.01;96801.50;4934239;29;20067;-75
2022/01/03 07:23:21;;;;;;;4.45;1.50;;;;;;;9.83;77.04;96803.25;4936797;29;20054;-75
2022/01/03 07:25:52;;;;;;;7.90;1.70;;;;;;;9.84;77.17;96796.28;4937338;29;20099;-76
2022/01/03 07:28:21;;;;;;;6.30;1.88;;;;;;;9.82;77.72;96780.81;4937810;29;20051;-75
2022/01/03 07:30:50;;;;;;;3.97;1.17;;;;;;;9.80;77.82;96777.56;4953730;29;20043;-76
2022/01/03 07:33:18;;;;;;;6.28;1.63;;;;;;;9.78;77.57;96783.94;4956294;29;20115;-77
2022/01/03 07:35:45;;;;;;;7.47;1.77;;;;;;;9.79;78.45;96796.75;4955734;29;20083;-75
2022/01/03 07:38:13;;;;;;;8.63;1.85;;;;;;;9.80;78.29;96790.59;4956155;29;20054;-76
2022/01/03 07:40:41;;;;;;;4.78;2.03;;;;;;;9.81;78.24;96792.19;4950692;29;20051;-75
2022/01/03 07:43:08;;;;;;;4.10;1.77;;;;;;;9.79;77.74;96799.38;4954879;29;20047;-75
2022/01/03 07:45:37;;;;;;;5.40;1.20;;;;;;;9.79;76.76;96791.56;4957841;29;20071;-75
2022/01/03 07:48:05;;;;;;;3.45;1.45;;;;;;;9.76;76.86;96799.72;4950205;29;20051;-76
2022/01/03 07:50:32;;;;;;;5.15;2.08;;;;;;;9.74;76.52;96791.28;4938692;29;20062;-75
2022/01/03 07:53:00;;;;;;;4.53;1.30;;;;;;;9.73;76.63;96783.63;4938836;29;20054;-75
2022/01/03 07:55:28;;;;;;;7.45;1.85;;;;;;;9.75;77.81;96786.88;4938127;29;20052;-76
2022/01/03 07:57:55;;;;;;;6.97;1.83;;;;;;;9.77;78.10;96785.69;4937002;29;20513;-75
2022/01/03 08:00:23;;;;;;;5.20;1.50;;;;;;;9.78;77.19;96781.31;4937338;29;20056;-75
2022/01/03 08:02:52;;;;;;;5.43;1.80;;;;;;;9.79;77.55;96788.94;4936992;29;20569;-75
2022/01/03 08:05:20;;;;;;;4.90;1.83;;;;;;;9.82;77.86;96787.81;4937112;29;20052;-75
2022/01/03 08:07:48;;;;;;;3.92;1.50;;;;;;;9.83;77.70;96805.88;4937047;29;20136;-75
2022/01/03 08:10:16;;;;;;;4.95;1.13;;;;;;;9.84;77.61;96804.09;4942106;29;20395;-75
2022/01/03 08:12:44;;;;;;;6.03;2.47;;;;;;;9.83;78.06;96795.44;4954626;29;20059;-76
2022/01/03 08:15:12;;;;;;;5.80;1.45;;;;;;;9.83;78.05;96794.63;4955799;29;20052;-76
2022/01/03 08:17:44;;;;;;;4.47;1.58;;;;;;;9.82;77.69;96793.84;4955719;29;20055;-76
2022/01/03 08:20:13;;;;;;;5.57;1.60;;;;;;;9.82;77.51;96791.22;4954989;29;20050;-75
2022/01/03 08:22:41;;;;;;;8.80;2.25;;;;;;;9.82;78.14;96796.44;4952440;29;20055;-75
2022/01/03 08:25:09;;;;;;;7.32;1.73;;;;;;;9.81;77.71;96797.41;4939292;29;20071;-75
2022/01/03 08:27:36;;;;;;;4.03;1.27;;;;;;;9.82;77.98;96801.66;4936244;29;20145;-76
2022/01/03 08:30:05;;;;;;;6.25;1.58;;;;;;;9.83;78.53;96805.88;4936859;29;20058;-75
2022/01/03 08:32:33;;;;;;;6.10;1.40;;;;;;;9.82;78.16;96799.03;4937587;29;20059;-75
2022/01/03 08:35:00;;;;;;;7.00;1.95;;;;;;;9.81;77.99;96807.81;4937897;29;20059;-75
2022/01/03 08:37:29;;;;;;;4.85;1.42;;;;;;;9.79;78.09;96798.56;4936615;29;20056;-75
2022/01/03 08:39:57;;;;;;;6.15;1.50;;;;;;;9.78;78.67;96800.38;4936224;29;20059;-75
2022/01/03 08:42:26;;;;;;;4.72;1.85;;;;;;;9.80;78.58;96801.00;4936627;29;20066;-76
2022/01/03 08:44:53;;;;;;;5.65;2.03;;;;;;;9.81;77.98;96796.59;4935715;29;20043;-75
2022/01/03 08:47:21;;;;;;;6.88;1.73;;;;;;;9.82;78.69;96809.47;4935561;29;20133;-75
2022/01/03 08:49:48;;;;;;;8.30;2.53;;;;;;;9.83;78.75;96811.06;4935587;29;20194;-76
2022/01/03 08:52:16;;;;;;;8.70;1.92;;;;;;;9.83;77.63;96807.66;4935357;29;20055;-76
2022/01/03 08:54:45;;;;;;;8.88;1.67;;;;;;;9.81;78.15;96801.81;4934641;29;20052;-80
2022/01/03 08:57:12;;;;;;;8.07;2.10;;;;;;;9.80;78.43;96803.63;4935542;29;20052;-76
2022/01/03 08:59:40;;;;;;;3.15;1.92;;;;;;;9.80;78.73;96801.00;4935075;29;20135;-76
2022/01/03 09:02:08;;;;;;;5.22;1.67;;;;;;;9.82;79.18;96786.03;4938706;29;20056;-77
2022/01/03 09:04:36;;;;;;;7.18;1.80;;;;;;;9.84;79.16;96786.66;4942912;29;20071;-77
2022/01/03 09:07:04;;;;;;;14.07;2.45;;;;;;;9.87;79.48;96790.72;4942739;29;20058;-77
2022/01/03 09:09:32;;;;;;;5.13;1.77;;;;;;;9.88;79.39;96780.13;4939045;29;20048;-76
2022/01/03 09:12:03;;;;;;;4.18;1.90;;;;;;;9.92;79.46;96783.19;4935330;29;20059;-76
2022/01/03 09:14:30;;;;;;;6.80;2.47;;;;;;;9.94;79.54;96780.41;4934938;29;20529;-76
2022/01/03 09:16:59;;;;;;;6.95;1.50;;;;;;;9.94;79.38;96786.41;4934773;29;20111;-76
2022/01/03 09:19:27;;;;;;;9.57;2.97;;;;;;;9.96;79.39;96784.47;4935093;29;20056;-76
2022/01/03 09:22:00;;;;;;;4.97;2.25;;;;;;;9.95;79.35;96793.28;4935242;29;20059;-76
2022/01/03 09:24:31;;;;;;;4.25;1.60;;;;;;;9.95;79.13;96798.50;4935024;29;20047;-75
2022/01/03 09:29:46;;;;;;;6.03;1.67;;;;;;;9.91;78.98;96802.41;4935327;29;20458;-76
2022/01/03 09:32:13;;;;;;;8.73;2.25;;;;;;;9.88;79.21;96779.28;4935178;29;20059;-76
2022/01/03 09:34:41;;;;;;;5.45;1.80;;;;;;;9.88;79.48;96767.09;4935370;29;20406;-75
2022/01/03 09:37:08;;;;;;;4.88;1.77;;;;;;;9.87;78.54;96767.25;4935197;29;20062;-75
2022/01/03 09:39:36;;;;;;;8.98;2.58;;;;;;;9.84;79.25;96784.06;4935453;29;20062;-76
2022/01/03 09:42:14;;;;;;;6.40;2.50;;;;;;;9.84;80.01;96763.22;4934998;29;20063;-76
2022/01/03 09:44:45;;;;;;;3.78;1.58;;;;;;;9.83;78.72;96761.56;4935057;29;20430;-76
2022/01/03 09:47:17;;;;;;;6.25;1.98;;;;;;;9.85;79.76;96761.41;4935411;29;20058;-76
2022/01/03 09:49:46;;;;;;;7.65;2.67;;;;;;;9.87;78.83;96762.06;4934849;29;20525;-76
2022/01/03 09:52:15;;;;;;;9.52;2.28;;;;;;;9.90;79.51;96759.91;4935088;29;20048;-76
2022/01/03 09:54:45;;;;;;;7.05;2.10;;;;;;;9.94;79.57;96764.78;4934758;29;20059;-76
2022/01/03 09:57:15;;;;;;;6.90;2.50;;;;;;;9.98;79.76;96763.44;4934789;29;20051;-75
2022/01/03 09:59:43;;;;;;;8.38;1.88;;;;;;;9.99;78.02;96762.44;4935060;29;20052;-76
2022/01/03 10:02:14;;;;;;;5.47;2.10;;;;;;;9.98;78.70;96750.41;4934540;29;20080;-76
2022/01/03 10:04:42;;;;;;;8.20;2.72;;;;;;;10.00;79.26;96751.06;4924346;29;20114;-76
2022/01/03 10:07:11;;;;;;;5.25;2.05;;;;;;;10.02;79.26;96754.31;4934383;29;20052;-75
2022/01/03 10:09:40;;;;;;;4.93;2.10;;;;;;;10.05;79.19;96759.16;4934827;29;20134;-76
2022/01/03 10:12:10;;;;;;;6.80;2.20;;;;;;;10.06;79.81;96747.75;4936804;29;20513;-76
2022/01/03 10:14:39;;;;;;;6.85;1.80;;;;;;;10.06;78.10;96747.75;4938583;29;20549;-75
2022/01/03 10:17:07;;;;;;;4.47;1.83;;;;;;;10.07;78.62;96749.38;4938160;29;20509;-76
2022/01/03 10:19:50;;;;;;;7.22;2.13;;;;;;;10.08;78.29;96746.59;4938870;29;20047;-75
2022/01/03 10:22:23;;;;;;;5.75;2.25;;;;;;;10.11;78.75;96742.81;4938783;29;20063;-76
2022/01/03 10:24:51;;;;;;;7.53;2.35;;;;;;;10.14;78.40;96744.25;4938488;29;20051;-75
2022/01/03 10:27:19;;;;;;;9.05;1.80;;;;;;;10.17;78.39;96738.72;4937578;29;20138;-77
2022/01/03 10:29:59;;;;;;;4.75;1.55;;;;;;;10.18;78.54;96750.75;4937997;29;20059;-76
2022/01/03 10:32:29;;;;;;;3.78;1.58;;;;;;;10.21;78.30;96747.78;4937919;29;20054;-76
2022/01/03 10:34:58;;;;;;;8.50;2.28;;;;;;;10.21;77.68;96740.78;4938259;29;20051;-75
2022/01/03 10:37:37;;;;;;;8.15;1.27;;;;;;;10.24;77.52;96747.44;4938036;29;20058;-76
2022/01/03 10:40:19;;;;;;;4.57;2.00;;;;;;;10.28;76.58;96751.31;4937730;29;20054;-75
2022/01/03 10:42:48;;;;;;;4.63;1.58;;;;;;;10.31;76.79;96740.56;4937671;29;20054;-75
2022/01/03 10:45:27;;;;;;;4.75;1.02;;;;;;;10.31;75.57;96741.38;4937617;29;20058;-76
2022/01/03 10:47:55;;;;;;;5.25;1.25;;;;;;;10.33;75.26;96727.34;4937623;29;20051;-76
2022/01/03 10:50:24;;;;;;;6.82;1.70;;;;;;;10.35;75.02;96733.22;4936761;29;20051;-76
2022/01/03 10:52:52;;;;;;;6.28;1.27;;;;;;;10.35;75.02;96738.44;4937310;29;20067;-75
2022/01/03 10:55:24;;;;;;;5.50;1.45;;;;;;;10.35;74.65;96735.81;4937392;29;20059;-76
2022/01/03 10:57:54;;;;;;;4.78;1.00;;;;;;;10.38;74.65;96730.25;4937344;29;20054;-76
2022/01/03 11:00:28;;;;;;;3.45;1.20;;;;;;;10.40;72.54;96726.47;4938453;29;20465;-75
2022/01/03 11:03:28;;;;;;;8.05;2.03;;;;;;;10.45;74.45;96720.72;4937102;29;20051;-77
2022/01/03 11:06:02;;;;;;;3.97;0.88;;;;;;;10.46;71.83;96724.94;4929206;29;20434;-77
2022/01/03 11:11:32;;;;;;;4.05;1.23;;;;;;;10.49;72.50;96733.25;4937469;29;20047;-77
2022/01/03 11:14:00;;;;;;;3.83;1.00;;;;;;;10.51;72.56;96720.00;4937661;29;20066;-77
2022/01/03 11:16:32;;;;;;;5.50;1.15;;;;;;;10.55;72.43;96730.91;4937372;29;20659;-76
2022/01/03 11:19:00;;;;;;;;;;;;;;;10.57;71.64;96727.13;4939083;29;20059;-77
2022/01/03 11:21:30;;;;;;;4.13;0.77;;;;;;;10.54;71.87;96726.66;4937529;29;20550;-77
2022/01/03 11:24:08;;;;;;;3.55;0.98;;;;;;;10.53;72.81;96715.41;4936725;29;20429;-76
2022/01/03 11:26:40;;;;;;;5.28;1.58;;;;;;;10.53;70.55;96723.25;4936856;29;20134;-77
2022/01/03 11:29:09;;;;;;;3.67;1.20;;;;;;;10.55;71.81;96717.88;4936773;29;20059;-76
2022/01/03 11:31:40;;;;;;;7.30;1.02;;;;;;;10.58;71.29;96714.88;4936852;29;20281;-76
2022/01/03 11:34:08;;;;;;;5.13;1.35;;;;;;;10.60;72.05;96708.50;4937157;29;20054;-77
2022/01/03 11:36:57;;;;;;;3.22;0.77;;;;;;;10.62;71.98;96690.88;4936556;29;20051;-77
2022/01/03 11:39:30;;;;;;;3.92;1.20;;;;;;;10.62;72.27;96690.06;4936696;29;20048;-76
2022/01/03 11:41:59;;;;;;;8.70;1.40;;;;;;;10.62;72.52;96683.03;4936494;29;20066;-76
2022/01/03 11:44:27;;;;;;;6.50;1.10;;;;;;;10.62;71.14;96690.88;4936354;29;20052;-76
2022/01/03 11:46:57;;;;;;;4.20;1.30;;;;;;;10.61;70.79;96672.81;4936593;29;20048;-77
2022/01/03 11:49:25;;;;;;;5.82;1.65;;;;;;;10.63;71.63;96676.84;4936859;29;20051;-76
2022/01/03 11:51:53;;;;;;;2.70;0.90;;;;;;;10.65;71.10;96676.69;4936481;29;20070;-76
2022/01/03 11:54:21;;;;;;;7.35;1.42;;;;;;;10.65;71.59;96671.47;4936462;29;20063;-76
2022/01/03 11:57:07;;;;;;;3.25;1.15;;;;;;;10.65;69.48;96664.44;4936198;29;20063;-77